SLC Intl Airport
, Salt Lake City
Last Weather Update:04/16/2012 10:00:00 AM
Date
ETo
ETc
Rain
Irrigation
Req
Temp
Max
Temp
Min
Temp
Avg
Avg RH
Avg Wind
Avg Solar
inches
inches
incehs
inches
F
F
F
%
%
watts/m2
03/01/2012 0.05" 0.00" 0.12" -0.10" 36.8° 25.6° 29.8° 83.4% 5.1 MPH 164.4w/m2
03/02/2012 0.06" 0.00" 0.01" -0.01" 33.0° 23.8° 29.1° 61.6% 7.3 MPH 177.5w/m2
03/03/2012 0.07" 0.00" 0.00" 0.00" 41.5° 28.8° 34.8° 51.7% 7.2 MPH 115.1w/m2
03/04/2012 0.11" 0.00" 0.00" 0.00" 55.4° 35.1° 44.1° 48.3% 5.3 MPH 221.3w/m2
03/05/2012 0.16" 0.00" 0.00" 0.00" 64.9° 35.4° 50.1° 40.5% 8.5 MPH 208.6w/m2
03/06/2012 0.14" 0.00" 0.00" 0.00" 59.1° 26.6° 47.1° 44.1% 17.2 MPH 74.3w/m2
03/07/2012 0.08" 0.00" 0.00" 0.00" 41.3° 24.5° 32.2° 66.0% 10.8 MPH 201.5w/m2
03/08/2012 0.09" 0.00" 0.00" 0.00" 44.5° 25.7° 35.3° 56.5% 4.3 MPH 236.8w/m2
03/09/2012 0.10" 0.00" 0.00" 0.00" 49.7° 27.7° 38.7° 57.1% 3.3 MPH 234.7w/m2
03/10/2012 0.12" 0.00" 0.00" 0.00" 56.0° 30.2° 42.4° 53.7% 3.6 MPH 235.8w/m2
03/11/2012 0.17" 0.00" 0.00" 0.00" 65.8° 36.6° 51.5° 36.2% 7.9 MPH 229.1w/m2
03/12/2012 0.21" 0.00" 0.00" 0.00" 67.0° 44.0° 57.2° 23.0% 10.2 MPH 238.8w/m2
03/13/2012 0.21" 0.00" 0.00" 0.00" 67.3° 53.7° 59.4° 19.0% 12.6 MPH 145.3w/m2
03/14/2012 0.17" 0.00" 0.00" 0.00" 64.0° 52.4° 58.1° 26.4% 9.9 MPH 139.3w/m2
03/15/2012 0.18" 0.00" 0.00" 0.00" 69.4° 47.9° 58.2° 36.3% 5.9 MPH 217.4w/m2
03/16/2012 0.19" 0.00" 0.00" 0.00" 67.0° 55.4° 61.1° 27.0% 11.9 MPH 110.1w/m2
03/17/2012 0.26" 0.00" 0.00" 0.00" 66.4° 51.2° 59.4° 32.4% 16.6 MPH 141.6w/m2
03/18/2012 0.07" 0.00" 0.23" -0.18" 52.9° 33.2° 41.2° 67.5% 11.8 MPH 79.3w/m2
03/19/2012 0.08" 0.00" 0.00" 0.00" 42.3° 31.5° 36.2° 60.1% 7.4 MPH 151.6w/m2
03/20/2012 0.11" 0.00" 0.04" -0.03" 48.1° 28.6° 38.3° 57.7% 4.2 MPH 263.5w/m2
03/21/2012 0.17" 0.00" 0.00" 0.00" 62.7° 42.1° 51.4° 38.7% 7.2 MPH 250.6w/m2
03/22/2012 0.23" 0.00" 0.00" 0.00" 72.1° 44.2° 58.7° 30.7% 9.3 MPH 270.7w/m2
03/23/2012 0.21" 0.00" 0.00" 0.00" 73.2° 55.7° 64.0° 23.3% 10.3 MPH 147.7w/m2
03/24/2012 0.21" 0.00" 0.00" 0.00" 72.1° 51.4° 62.0° 28.5% 8.0 MPH 202.6w/m2
03/25/2012 0.20" 0.00" 0.00" 0.00" 72.8° 53.1° 63.5° 24.4% 7.6 MPH 173.3w/m2
03/26/2012 0.13" 0.00" 0.00" 0.00" 59.5° 40.6° 50.2° 40.3% 9.3 MPH 186.0w/m2
03/27/2012 0.14" 0.00" 0.00" 0.00" 62.5° 40.0° 50.7° 39.4% 5.9 MPH 188.8w/m2
03/28/2012 0.18" 0.00" 0.01" -0.01" 67.0° 46.5° 56.1° 36.0% 10.3 MPH 173.8w/m2
03/29/2012 0.12" 0.00" 0.03" -0.02" 60.3° 38.9° 49.6° 65.4% 4.9 MPH 204.5w/m2
03/30/2012 0.18" 0.00" 0.00" 0.00" 70.7° 45.2° 58.3° 45.5% 5.4 MPH 242.0w/m2
03/31/2012 0.34" 0.00" 0.00" 0.00" 79.3° 56.2° 68.0° 24.5% 16.8 MPH 284.3w/m2
Totals: 4.73" 0.00" 0.44" -0.35" 79.3° 23.8° 49.6° 43.4% 8.6 MPH 190.7w/m2